Webcam Flughafen St.Gallen-Altenrhein

Live-Bilder und Zeitraffer LSZR / ACH.

 

Live aus Altenrhein
LIVE
LSZR 180520Z AUTO VRB02KT 9999 OVC014 01/M01 Q1021
Zeitraffer heute
2018-11-18 00:00:00
LSZR 172250Z AUTO 21002KT 8000 NCD M00/M01 Q1023
Zeitraffer gestern
2018-11-17 00:14:21
LSZR 162250Z AUTO 13005KT 9999 OVC017 04/02 Q1025
Zeitraffer vor 3 Tagen
2018-11-15 00:14:13
LSZR 142250Z AUTO 09005KT 070V140 8000 OVC006 07/06 Q1027